createdAt,value
2023-09-09T00:01:18.260Z,19.60
2023-09-09T00:06:21.550Z,19.70
2023-09-09T00:11:24.753Z,19.60
2023-09-09T00:16:34.563Z,19.40
2023-09-09T00:21:37.921Z,19.50
2023-09-09T00:26:41.105Z,19.50
2023-09-09T00:31:50.884Z,19.30
2023-09-09T00:36:54.188Z,19.50
2023-09-09T00:41:57.516Z,19.60
2023-09-09T00:47:02.414Z,19.50
2023-09-09T00:52:06.379Z,19.30
2023-09-09T00:57:10.150Z,19.30
2023-09-09T01:02:15.004Z,19.30
2023-09-09T01:07:18.274Z,18.80
2023-09-09T01:12:23.822Z,18.80
2023-09-09T01:17:28.917Z,18.70
2023-09-09T01:22:36.622Z,18.70
2023-09-09T01:27:40.066Z,18.90
2023-09-09T01:32:43.339Z,18.70
2023-09-09T01:37:48.950Z,18.80
2023-09-09T01:42:52.230Z,18.70
2023-09-09T01:47:55.498Z,18.50
2023-09-09T01:53:00.463Z,18.50
2023-09-09T01:58:03.947Z,18.20
2023-09-09T02:03:07.950Z,18.10
2023-09-09T02:08:12.709Z,18.10
2023-09-09T02:13:15.896Z,18.30
2023-09-09T02:18:19.097Z,18.40
2023-09-09T02:23:23.735Z,18.20
2023-09-09T02:28:27.584Z,18.10
2023-09-09T02:33:30.864Z,18.20
2023-09-09T02:38:37.270Z,18.00
2023-09-09T02:43:40.507Z,18.00
2023-09-09T02:48:44.706Z,18.20
2023-09-09T02:53:49.268Z,18.30
2023-09-09T02:58:52.437Z,18.20
2023-09-09T03:03:55.677Z,18.10
2023-09-09T03:09:00.305Z,18.10
2023-09-09T03:14:03.641Z,17.80
2023-09-09T03:19:06.953Z,17.70
2023-09-09T03:24:11.537Z,17.70
2023-09-09T03:29:15.068Z,17.60
2023-09-09T03:34:18.287Z,17.80
2023-09-09T03:39:23.169Z,17.80
2023-09-09T03:44:26.733Z,17.70
2023-09-09T03:49:29.985Z,17.60
2023-09-09T03:54:34.546Z,17.70
2023-09-09T03:59:37.751Z,18.00
2023-09-09T04:04:40.994Z,17.80
2023-09-09T04:09:45.756Z,17.70
2023-09-09T04:14:49.071Z,17.70
2023-09-09T04:19:52.460Z,17.60
2023-09-09T04:24:57.173Z,17.40
2023-09-09T04:30:00.356Z,17.60
2023-09-09T04:35:04.548Z,17.50
2023-09-09T04:40:12.042Z,17.40
2023-09-09T04:45:15.283Z,17.50
2023-09-09T04:50:18.903Z,17.50
2023-09-09T04:55:23.476Z,17.20
2023-09-09T05:00:26.791Z,17.10
2023-09-09T05:05:30.002Z,17.30
2023-09-09T05:10:35.590Z,17.20
2023-09-09T05:15:39.377Z,17.30
2023-09-09T05:20:42.540Z,17.10
2023-09-09T05:25:47.217Z,17.10
2023-09-09T05:30:50.415Z,17.20
2023-09-09T05:35:53.570Z,16.90
2023-09-09T05:40:58.364Z,16.70
2023-09-09T05:46:02.176Z,16.90
2023-09-09T05:51:05.634Z,16.80
2023-09-09T05:56:10.416Z,16.90
2023-09-09T06:01:13.652Z,17.20
2023-09-09T06:06:17.091Z,17.50
2023-09-09T06:11:21.812Z,18.10
2023-09-09T06:16:25.144Z,18.50
2023-09-09T06:21:28.402Z,18.80
2023-09-09T06:26:35.090Z,19.10
2023-09-09T06:31:38.478Z,19.40
2023-09-09T06:36:41.679Z,19.80
2023-09-09T06:41:46.633Z,19.90
2023-09-09T06:46:49.831Z,20.00
2023-09-09T06:51:54.764Z,20.20
2023-09-09T06:56:59.606Z,20.50
2023-09-09T07:02:03.392Z,21.00
2023-09-09T07:07:13.222Z,21.20
2023-09-09T07:12:18.394Z,21.10
2023-09-09T07:17:22.128Z,21.30
2023-09-09T07:22:25.353Z,21.80
2023-09-09T07:27:29.933Z,22.00
2023-09-09T07:32:33.253Z,22.30
2023-09-09T07:37:36.733Z,22.50
2023-09-09T07:42:41.295Z,22.40
2023-09-09T07:47:44.677Z,22.50
2023-09-09T07:52:48.032Z,22.60
2023-09-09T07:57:52.731Z,23.10
2023-09-09T08:02:56.024Z,23.20
2023-09-09T08:07:59.253Z,23.50
2023-09-09T08:13:04.556Z,23.40
2023-09-09T08:18:08.198Z,23.50
2023-09-09T08:23:11.410Z,23.60
2023-09-09T08:28:18.514Z,23.80
2023-09-09T08:33:23.000Z,24.10
2023-09-09T08:38:26.219Z,24.20
2023-09-09T08:43:38.359Z,24.50
2023-09-09T08:48:43.230Z,24.50
2023-09-09T08:53:46.813Z,24.70
2023-09-09T08:58:51.547Z,25.00
2023-09-09T09:03:57.017Z,24.90
2023-09-09T09:09:00.422Z,25.20
2023-09-09T09:14:13.831Z,25.20
2023-09-09T09:19:22.502Z,25.30
2023-09-09T09:24:28.086Z,25.40
2023-09-09T09:29:41.902Z,25.60
2023-09-09T09:34:45.558Z,25.50
2023-09-09T09:39:48.933Z,25.70
2023-09-09T09:45:00.525Z,25.90
2023-09-09T09:50:08.272Z,26.20
2023-09-09T09:55:18.837Z,26.00
2023-09-09T10:00:23.671Z,26.10
2023-09-09T10:05:28.463Z,26.40
2023-09-09T10:10:33.998Z,26.50
2023-09-09T10:15:38.977Z,26.40
2023-09-09T10:20:43.066Z,26.60
2023-09-09T10:25:46.699Z,26.90
2023-09-09T10:30:52.469Z,27.20
2023-09-09T10:35:56.564Z,27.30
2023-09-09T10:41:00.265Z,27.50
2023-09-09T10:46:05.376Z,27.60
2023-09-09T10:51:08.924Z,27.60
2023-09-09T10:56:25.287Z,27.80
2023-09-09T11:01:29.972Z,27.60
2023-09-09T11:06:33.333Z,27.90
2023-09-09T11:11:38.897Z,28.10
2023-09-09T11:16:44.759Z,28.20
2023-09-09T11:21:48.856Z,28.50
2023-09-09T11:26:52.816Z,28.70
2023-09-09T11:31:57.668Z,28.80
2023-09-09T11:37:02.185Z,28.40
2023-09-09T11:42:05.937Z,28.30
2023-09-09T11:47:10.806Z,28.60
2023-09-09T11:52:14.330Z,28.70
2023-09-09T11:57:17.629Z,29.00
2023-09-09T12:02:23.205Z,29.30
2023-09-09T12:07:29.158Z,29.40
2023-09-09T12:12:32.852Z,29.40
2023-09-09T12:17:37.853Z,29.20
2023-09-09T12:22:48.198Z,29.50
2023-09-09T12:27:51.510Z,29.70
2023-09-09T12:32:56.202Z,29.60
2023-09-09T12:37:59.647Z,29.80
2023-09-09T12:43:11.273Z,29.80
2023-09-09T12:48:16.238Z,29.50
2023-09-09T12:53:19.454Z,29.50
2023-09-09T12:58:23.808Z,29.60
2023-09-09T13:03:28.527Z,29.80
2023-09-09T13:08:31.750Z,29.90
2023-09-09T13:13:35.096Z,30.10
2023-09-09T13:18:39.873Z,30.30
2023-09-09T13:23:43.119Z,30.40
2023-09-09T13:28:46.329Z,30.10
2023-09-09T13:33:50.938Z,30.20
2023-09-09T13:38:54.192Z,29.90
2023-09-09T13:43:57.721Z,30.30
2023-09-09T13:49:02.297Z,30.30
2023-09-09T13:54:06.015Z,30.50
2023-09-09T13:59:09.373Z,30.60
2023-09-09T14:04:14.168Z,30.70
2023-09-09T14:09:17.454Z,30.70
2023-09-09T14:14:20.791Z,30.60
2023-09-09T14:19:25.420Z,30.50
2023-09-09T14:24:28.636Z,30.30
2023-09-09T14:29:31.844Z,30.20
2023-09-09T14:34:36.756Z,30.20
2023-09-09T14:39:40.116Z,30.20
2023-09-09T14:44:44.216Z,30.20
2023-09-09T14:49:49.061Z,30.30
2023-09-09T14:54:52.364Z,30.10
2023-09-09T14:59:55.607Z,30.10
2023-09-09T15:05:00.481Z,30.20
2023-09-09T15:10:03.682Z,30.20
2023-09-09T15:15:08.324Z,30.20
2023-09-09T15:20:13.620Z,30.20
2023-09-09T15:25:16.927Z,30.20
2023-09-09T15:30:20.258Z,30.00
2023-09-09T15:35:29.713Z,30.00
2023-09-09T15:40:33.083Z,29.90
2023-09-09T15:45:36.391Z,29.90
2023-09-09T15:50:43.184Z,30.00
2023-09-09T15:55:46.476Z,30.00
2023-09-09T16:00:50.972Z,29.80
2023-09-09T16:05:55.529Z,29.90
2023-09-09T16:10:58.888Z,29.80
2023-09-09T16:16:02.808Z,29.70
2023-09-09T16:21:07.633Z,29.60
2023-09-09T16:26:10.848Z,29.60
2023-09-09T16:31:14.059Z,29.50
2023-09-09T16:36:18.704Z,29.40
2023-09-09T16:41:21.938Z,29.30
2023-09-09T16:46:26.849Z,29.20
2023-09-09T16:51:32.893Z,29.10
2023-09-09T16:56:36.163Z,29.10
2023-09-09T17:01:39.546Z,28.90
2023-09-09T17:06:44.309Z,28.90
2023-09-09T17:11:47.451Z,28.70
2023-09-09T17:16:50.702Z,28.60
2023-09-09T17:21:55.784Z,28.40
2023-09-09T17:26:59.030Z,28.20
2023-09-09T17:32:04.790Z,28.00
2023-09-09T17:37:09.601Z,27.80
2023-09-09T17:42:12.957Z,27.70
2023-09-09T17:47:16.330Z,27.50
2023-09-09T17:52:21.076Z,27.40
2023-09-09T17:57:24.304Z,27.10
2023-09-09T18:02:27.578Z,26.80
2023-09-09T18:07:32.255Z,26.50
2023-09-09T18:12:37.954Z,26.30
2023-09-09T18:17:41.402Z,26.30
2023-09-09T18:22:46.079Z,26.10
2023-09-09T18:27:49.625Z,25.80
2023-09-09T18:32:52.832Z,25.60
2023-09-09T18:37:57.600Z,25.40
2023-09-09T18:43:00.854Z,25.20
2023-09-09T18:48:04.987Z,25.10
2023-09-09T18:53:09.551Z,24.90
2023-09-09T18:58:14.292Z,24.90
2023-09-09T19:03:19.863Z,24.70
2023-09-09T19:08:24.992Z,24.80
2023-09-09T19:13:28.355Z,24.60
2023-09-09T19:18:31.636Z,24.30
2023-09-09T19:23:36.243Z,24.20
2023-09-09T19:28:39.657Z,24.00
2023-09-09T19:33:43.257Z,23.60
2023-09-09T19:38:47.846Z,23.70
2023-09-09T19:43:51.074Z,23.60
2023-09-09T19:48:56.057Z,23.40
2023-09-09T19:54:00.639Z,23.10
2023-09-09T19:59:03.890Z,23.10
2023-09-09T20:04:07.460Z,23.10
2023-09-09T20:09:12.130Z,23.00
2023-09-09T20:14:15.587Z,22.50
2023-09-09T20:19:18.834Z,22.10
2023-09-09T20:24:23.594Z,21.90
2023-09-09T20:29:26.844Z,21.70
2023-09-09T20:34:30.102Z,21.90
2023-09-09T20:39:35.146Z,21.90
2023-09-09T20:44:38.396Z,21.60
2023-09-09T20:49:41.717Z,21.40
2023-09-09T20:54:46.326Z,21.30
2023-09-09T20:59:51.123Z,21.40
2023-09-09T21:04:54.384Z,21.40
2023-09-09T21:09:59.096Z,21.30
2023-09-09T21:15:04.152Z,21.00
2023-09-09T21:20:09.668Z,21.10
2023-09-09T21:25:14.379Z,21.00
2023-09-09T21:30:17.667Z,20.70
2023-09-09T21:35:20.893Z,20.60
2023-09-09T21:40:25.793Z,20.70
2023-09-09T21:45:29.074Z,20.70
2023-09-09T21:50:32.272Z,20.80
2023-09-09T21:55:36.933Z,20.80
2023-09-09T22:00:40.269Z,20.90
2023-09-09T22:05:43.550Z,20.80
2023-09-09T22:10:50.195Z,20.80
2023-09-09T22:15:53.514Z,20.50
2023-09-09T22:20:57.022Z,20.20
2023-09-09T22:26:01.789Z,20.40
2023-09-09T22:31:05.426Z,20.40
2023-09-09T22:36:09.402Z,20.30
2023-09-09T22:41:13.912Z,20.20
2023-09-09T22:46:17.218Z,20.00
2023-09-09T22:51:20.573Z,19.90
2023-09-09T22:56:25.262Z,19.80
2023-09-09T23:01:28.467Z,19.70
2023-09-09T23:06:31.912Z,19.90
2023-09-09T23:11:36.490Z,20.00
2023-09-09T23:16:39.955Z,20.00
2023-09-09T23:21:43.260Z,19.90
2023-09-09T23:26:50.037Z,19.90
2023-09-09T23:31:53.349Z,19.60
2023-09-09T23:36:56.594Z,19.50
2023-09-09T23:42:01.247Z,19.40
2023-09-09T23:47:04.881Z,19.40
2023-09-09T23:52:08.303Z,19.50
2023-09-09T23:57:12.949Z,19.30
